sensor_id;sensor_type;location;lat;lon;timestamp;P1;durP1;ratioP1;P2;durP2;ratioP2
7426;SDS011;3755;59.316;18.092;2022-07-29T00:01:58;5.90;;;1.20;;
7426;SDS011;3755;59.316;18.092;2022-07-29T00:04:27;4.38;;;1.20;;
7426;SDS011;3755;59.316;18.092;2022-07-29T00:06:54;4.95;;;0.80;;
7426;SDS011;3755;59.316;18.092;2022-07-29T00:09:21;4.45;;;0.80;;
7426;SDS011;3755;59.316;18.092;2022-07-29T00:12:02;7.75;;;1.10;;
7426;SDS011;3755;59.316;18.092;2022-07-29T00:14:30;5.82;;;1.15;;
7426;SDS011;3755;59.316;18.092;2022-07-29T00:16:58;4.63;;;1.13;;
7426;SDS011;3755;59.316;18.092;2022-07-29T00:19:25;2.25;;;0.90;;
7426;SDS011;3755;59.316;18.092;2022-07-29T00:21:52;0.90;;;0.65;;
7426;SDS011;3755;59.316;18.092;2022-07-29T00:24:23;2.90;;;0.82;;
7426;SDS011;3755;59.316;18.092;2022-07-29T00:26:50;2.42;;;1.20;;
7426;SDS011;3755;59.316;18.092;2022-07-29T00:29:17;5.05;;;1.38;;
7426;SDS011;3755;59.316;18.092;2022-07-29T00:31:45;12.18;;;1.95;;
7426;SDS011;3755;59.316;18.092;2022-07-29T00:34:14;7.68;;;1.40;;
7426;SDS011;3755;59.316;18.092;2022-07-29T00:36:56;7.68;;;1.70;;
7426;SDS011;3755;59.316;18.092;2022-07-29T00:39:23;7.20;;;1.60;;
7426;SDS011;3755;59.316;18.092;2022-07-29T00:41:50;12.50;;;1.30;;
7426;SDS011;3755;59.316;18.092;2022-07-29T00:44:17;2.83;;;1.10;;
7426;SDS011;3755;59.316;18.092;2022-07-29T00:46:44;5.95;;;1.55;;
7426;SDS011;3755;59.316;18.092;2022-07-29T00:49:12;2.80;;;0.98;;
7426;SDS011;3755;59.316;18.092;2022-07-29T00:51:40;3.30;;;0.90;;
7426;SDS011;3755;59.316;18.092;2022-07-29T00:54:07;3.33;;;0.93;;
7426;SDS011;3755;59.316;18.092;2022-07-29T00:56:34;3.55;;;1.05;;
7426;SDS011;3755;59.316;18.092;2022-07-29T00:59:02;3.17;;;0.43;;
7426;SDS011;3755;59.316;18.092;2022-07-29T01:01:29;1.98;;;0.70;;
7426;SDS011;3755;59.316;18.092;2022-07-29T01:03:56;4.47;;;0.80;;
7426;SDS011;3755;59.316;18.092;2022-07-29T01:06:23;4.35;;;0.70;;
7426;SDS011;3755;59.316;18.092;2022-07-29T01:08:54;1.05;;;0.65;;
7426;SDS011;3755;59.316;18.092;2022-07-29T01:11:21;1.13;;;0.52;;
7426;SDS011;3755;59.316;18.092;2022-07-29T01:13:48;1.00;;;0.70;;
7426;SDS011;3755;59.316;18.092;2022-07-29T01:16:17;3.63;;;0.82;;
7426;SDS011;3755;59.316;18.092;2022-07-29T01:18:49;1.65;;;0.75;;
7426;SDS011;3755;59.316;18.092;2022-07-29T01:21:25;2.30;;;0.65;;
7426;SDS011;3755;59.316;18.092;2022-07-29T01:24:14;1.15;;;0.70;;
7426;SDS011;3755;59.316;18.092;2022-07-29T01:26:58;2.67;;;0.70;;
7426;SDS011;3755;59.316;18.092;2022-07-29T01:29:32;1.27;;;0.60;;
7426;SDS011;3755;59.316;18.092;2022-07-29T01:32:03;1.40;;;0.93;;
7426;SDS011;3755;59.316;18.092;2022-07-29T01:34:35;0.55;;;0.55;;
7426;SDS011;3755;59.316;18.092;2022-07-29T01:37:09;0.88;;;0.50;;
7426;SDS011;3755;59.316;18.092;2022-07-29T01:39:40;0.68;;;0.65;;
7426;SDS011;3755;59.316;18.092;2022-07-29T01:42:11;2.03;;;0.50;;
7426;SDS011;3755;59.316;18.092;2022-07-29T01:44:45;0.80;;;0.63;;
7426;SDS011;3755;59.316;18.092;2022-07-29T01:47:17;0.90;;;0.50;;
7426;SDS011;3755;59.316;18.092;2022-07-29T01:49:50;2.15;;;0.80;;
7426;SDS011;3755;59.316;18.092;2022-07-29T01:52:20;1.95;;;0.80;;
7426;SDS011;3755;59.316;18.092;2022-07-29T01:54:52;1.77;;;0.80;;
7426;SDS011;3755;59.316;18.092;2022-07-29T01:57:24;3.17;;;0.55;;
7426;SDS011;3755;59.316;18.092;2022-07-29T01:59:58;3.03;;;0.65;;
7426;SDS011;3755;59.316;18.092;2022-07-29T02:02:27;1.02;;;0.60;;
7426;SDS011;3755;59.316;18.092;2022-07-29T02:04:56;2.58;;;1.02;;
7426;SDS011;3755;59.316;18.092;2022-07-29T02:07:28;9.88;;;1.45;;
7426;SDS011;3755;59.316;18.092;2022-07-29T02:09:58;10.68;;;1.50;;
7426;SDS011;3755;59.316;18.092;2022-07-29T02:12:30;3.53;;;1.13;;
7426;SDS011;3755;59.316;18.092;2022-07-29T02:15:02;6.30;;;1.73;;
7426;SDS011;3755;59.316;18.092;2022-07-29T02:17:33;11.38;;;2.00;;
7426;SDS011;3755;59.316;18.092;2022-07-29T02:20:05;9.32;;;1.30;;
7426;SDS011;3755;59.316;18.092;2022-07-29T02:22:35;7.57;;;1.70;;
7426;SDS011;3755;59.316;18.092;2022-07-29T02:25:04;7.60;;;1.40;;
7426;SDS011;3755;59.316;18.092;2022-07-29T02:27:34;3.17;;;0.90;;
7426;SDS011;3755;59.316;18.092;2022-07-29T02:30:03;10.45;;;1.52;;
7426;SDS011;3755;59.316;18.092;2022-07-29T02:32:32;5.95;;;1.38;;
7426;SDS011;3755;59.316;18.092;2022-07-29T02:35:01;6.57;;;1.10;;
7426;SDS011;3755;59.316;18.092;2022-07-29T02:37:30;4.75;;;0.85;;
7426;SDS011;3755;59.316;18.092;2022-07-29T02:39:58;2.92;;;0.90;;
7426;SDS011;3755;59.316;18.092;2022-07-29T02:42:26;3.72;;;1.08;;
7426;SDS011;3755;59.316;18.092;2022-07-29T02:44:54;3.88;;;1.30;;
7426;SDS011;3755;59.316;18.092;2022-07-29T02:47:27;7.78;;;1.50;;
7426;SDS011;3755;59.316;18.092;2022-07-29T02:50:00;5.20;;;1.38;;
7426;SDS011;3755;59.316;18.092;2022-07-29T02:52:34;8.68;;;1.10;;
7426;SDS011;3755;59.316;18.092;2022-07-29T02:55:07;5.60;;;1.40;;
7426;SDS011;3755;59.316;18.092;2022-07-29T02:57:42;3.90;;;1.00;;
7426;SDS011;3755;59.316;18.092;2022-07-29T03:00:13;7.35;;;1.10;;
7426;SDS011;3755;59.316;18.092;2022-07-29T03:02:43;4.18;;;0.70;;
7426;SDS011;3755;59.316;18.092;2022-07-29T03:05:13;3.28;;;1.00;;
7426;SDS011;3755;59.316;18.092;2022-07-29T03:07:45;3.30;;;0.90;;
7426;SDS011;3755;59.316;18.092;2022-07-29T03:10:13;6.63;;;0.90;;
7426;SDS011;3755;59.316;18.092;2022-07-29T03:12:41;3.75;;;0.93;;
7426;SDS011;3755;59.316;18.092;2022-07-29T03:15:09;4.82;;;1.00;;
7426;SDS011;3755;59.316;18.092;2022-07-29T03:17:36;3.90;;;1.25;;
7426;SDS011;3755;59.316;18.092;2022-07-29T03:20:07;7.35;;;1.88;;
7426;SDS011;3755;59.316;18.092;2022-07-29T03:22:38;5.78;;;1.23;;
7426;SDS011;3755;59.316;18.092;2022-07-29T03:25:08;7.28;;;1.63;;
7426;SDS011;3755;59.316;18.092;2022-07-29T03:27:36;17.52;;;3.28;;
7426;SDS011;3755;59.316;18.092;2022-07-29T03:30:03;14.18;;;1.83;;
7426;SDS011;3755;59.316;18.092;2022-07-29T03:32:31;16.27;;;1.80;;
7426;SDS011;3755;59.316;18.092;2022-07-29T03:34:58;12.18;;;1.90;;
7426;SDS011;3755;59.316;18.092;2022-07-29T03:37:27;11.85;;;2.10;;
7426;SDS011;3755;59.316;18.092;2022-07-29T03:39:55;10.77;;;1.63;;
7426;SDS011;3755;59.316;18.092;2022-07-29T03:42:24;13.85;;;1.85;;
7426;SDS011;3755;59.316;18.092;2022-07-29T03:44:56;10.48;;;1.40;;
7426;SDS011;3755;59.316;18.092;2022-07-29T03:47:25;12.98;;;1.67;;
7426;SDS011;3755;59.316;18.092;2022-07-29T03:49:55;8.68;;;1.48;;
7426;SDS011;3755;59.316;18.092;2022-07-29T03:52:27;13.02;;;1.70;;
7426;SDS011;3755;59.316;18.092;2022-07-29T03:54:55;8.30;;;1.63;;
7426;SDS011;3755;59.316;18.092;2022-07-29T03:57:23;7.90;;;1.20;;
7426;SDS011;3755;59.316;18.092;2022-07-29T03:59:53;3.00;;;0.90;;
7426;SDS011;3755;59.316;18.092;2022-07-29T04:02:21;8.13;;;1.42;;
7426;SDS011;3755;59.316;18.092;2022-07-29T04:04:48;5.28;;;1.17;;
7426;SDS011;3755;59.316;18.092;2022-07-29T04:07:16;5.45;;;1.25;;
7426;SDS011;3755;59.316;18.092;2022-07-29T04:09:44;5.97;;;1.58;;
7426;SDS011;3755;59.316;18.092;2022-07-29T04:12:11;7.25;;;1.63;;
7426;SDS011;3755;59.316;18.092;2022-07-29T04:14:38;7.25;;;1.50;;
7426;SDS011;3755;59.316;18.092;2022-07-29T04:17:05;5.75;;;1.40;;
7426;SDS011;3755;59.316;18.092;2022-07-29T04:19:32;9.63;;;1.30;;
7426;SDS011;3755;59.316;18.092;2022-07-29T04:22:00;7.95;;;1.30;;
7426;SDS011;3755;59.316;18.092;2022-07-29T04:24:27;6.55;;;2.08;;
7426;SDS011;3755;59.316;18.092;2022-07-29T04:26:56;6.53;;;1.42;;
7426;SDS011;3755;59.316;18.092;2022-07-29T04:29:23;7.07;;;1.00;;
7426;SDS011;3755;59.316;18.092;2022-07-29T04:31:50;10.35;;;1.42;;
7426;SDS011;3755;59.316;18.092;2022-07-29T04:34:17;6.00;;;1.30;;
7426;SDS011;3755;59.316;18.092;2022-07-29T04:36:44;7.57;;;1.38;;
7426;SDS011;3755;59.316;18.092;2022-07-29T04:39:11;8.98;;;1.30;;
7426;SDS011;3755;59.316;18.092;2022-07-29T04:41:38;7.43;;;1.60;;
7426;SDS011;3755;59.316;18.092;2022-07-29T04:44:06;5.85;;;1.80;;
7426;SDS011;3755;59.316;18.092;2022-07-29T04:46:35;6.82;;;1.75;;
7426;SDS011;3755;59.316;18.092;2022-07-29T04:49:02;7.10;;;1.90;;
7426;SDS011;3755;59.316;18.092;2022-07-29T04:51:29;5.72;;;1.80;;
7426;SDS011;3755;59.316;18.092;2022-07-29T04:53:57;5.47;;;1.10;;
7426;SDS011;3755;59.316;18.092;2022-07-29T04:56:24;4.30;;;1.10;;
7426;SDS011;3755;59.316;18.092;2022-07-29T04:58:52;5.93;;;1.48;;
7426;SDS011;3755;59.316;18.092;2022-07-29T05:01:21;6.07;;;1.40;;
7426;SDS011;3755;59.316;18.092;2022-07-29T05:03:48;4.28;;;1.75;;
7426;SDS011;3755;59.316;18.092;2022-07-29T05:06:15;2.13;;;1.40;;
7426;SDS011;3755;59.316;18.092;2022-07-29T05:08:42;3.92;;;1.63;;
7426;SDS011;3755;59.316;18.092;2022-07-29T05:11:09;4.70;;;1.50;;
7426;SDS011;3755;59.316;18.092;2022-07-29T05:13:36;2.78;;;1.15;;
7426;SDS011;3755;59.316;18.092;2022-07-29T05:16:03;2.35;;;1.30;;
7426;SDS011;3755;59.316;18.092;2022-07-29T05:18:32;5.00;;;1.80;;
7426;SDS011;3755;59.316;18.092;2022-07-29T05:21:00;3.58;;;1.20;;
7426;SDS011;3755;59.316;18.092;2022-07-29T05:23:27;6.00;;;1.20;;
7426;SDS011;3755;59.316;18.092;2022-07-29T05:25:54;7.10;;;1.20;;
7426;SDS011;3755;59.316;18.092;2022-07-29T05:28:21;5.25;;;1.30;;
7426;SDS011;3755;59.316;18.092;2022-07-29T05:30:48;6.88;;;1.50;;
7426;SDS011;3755;59.316;18.092;2022-07-29T05:33:15;4.07;;;1.02;;
7426;SDS011;3755;59.316;18.092;2022-07-29T05:35:44;1.75;;;1.00;;
7426;SDS011;3755;59.316;18.092;2022-07-29T05:38:11;2.10;;;1.00;;
7426;SDS011;3755;59.316;18.092;2022-07-29T05:40:38;2.53;;;1.35;;
7426;SDS011;3755;59.316;18.092;2022-07-29T05:43:05;2.50;;;0.90;;
7426;SDS011;3755;59.316;18.092;2022-07-29T05:45:32;2.78;;;1.20;;
7426;SDS011;3755;59.316;18.092;2022-07-29T05:47:59;2.15;;;0.77;;
7426;SDS011;3755;59.316;18.092;2022-07-29T05:50:26;1.75;;;0.95;;
7426;SDS011;3755;59.316;18.092;2022-07-29T05:52:55;3.50;;;0.93;;
7426;SDS011;3755;59.316;18.092;2022-07-29T05:55:22;2.00;;;0.90;;
7426;SDS011;3755;59.316;18.092;2022-07-29T05:57:49;2.38;;;0.70;;
7426;SDS011;3755;59.316;18.092;2022-07-29T06:00:18;4.93;;;1.00;;
7426;SDS011;3755;59.316;18.092;2022-07-29T06:02:45;5.00;;;1.15;;
7426;SDS011;3755;59.316;18.092;2022-07-29T06:05:12;4.15;;;0.88;;
7426;SDS011;3755;59.316;18.092;2022-07-29T06:07:41;1.60;;;0.80;;
7426;SDS011;3755;59.316;18.092;2022-07-29T06:10:10;3.88;;;0.90;;
7426;SDS011;3755;59.316;18.092;2022-07-29T06:12:37;1.17;;;0.80;;
7426;SDS011;3755;59.316;18.092;2022-07-29T06:15:06;2.15;;;0.57;;
7426;SDS011;3755;59.316;18.092;2022-07-29T06:17:35;1.88;;;0.60;;
7426;SDS011;3755;59.316;18.092;2022-07-29T06:20:02;3.30;;;0.80;;
7426;SDS011;3755;59.316;18.092;2022-07-29T06:22:33;1.27;;;0.60;;
7426;SDS011;3755;59.316;18.092;2022-07-29T06:25:01;0.70;;;0.40;;
7426;SDS011;3755;59.316;18.092;2022-07-29T06:27:33;0.77;;;0.60;;
7426;SDS011;3755;59.316;18.092;2022-07-29T06:30:00;1.45;;;0.80;;
7426;SDS011;3755;59.316;18.092;2022-07-29T06:32:27;0.50;;;0.50;;
7426;SDS011;3755;59.316;18.092;2022-07-29T06:34:56;1.23;;;0.40;;
7426;SDS011;3755;59.316;18.092;2022-07-29T06:37:23;2.10;;;0.50;;
7426;SDS011;3755;59.316;18.092;2022-07-29T06:39:50;4.20;;;0.70;;
7426;SDS011;3755;59.316;18.092;2022-07-29T06:42:43;1.50;;;0.40;;
7426;SDS011;3755;59.316;18.092;2022-07-29T06:45:10;1.55;;;0.40;;
7426;SDS011;3755;59.316;18.092;2022-07-29T06:47:37;2.20;;;0.40;;
7426;SDS011;3755;59.316;18.092;2022-07-29T06:50:05;0.63;;;0.30;;
7426;SDS011;3755;59.316;18.092;2022-07-29T06:52:36;0.60;;;0.40;;
7426;SDS011;3755;59.316;18.092;2022-07-29T06:55:03;1.50;;;0.40;;
7426;SDS011;3755;59.316;18.092;2022-07-29T06:57:31;0.50;;;0.40;;
7426;SDS011;3755;59.316;18.092;2022-07-29T07:00:00;0.40;;;0.40;;
7426;SDS011;3755;59.316;18.092;2022-07-29T07:02:29;2.50;;;0.32;;
7426;SDS011;3755;59.316;18.092;2022-07-29T07:04:57;1.48;;;0.40;;
7426;SDS011;3755;59.316;18.092;2022-07-29T07:07:24;0.63;;;0.32;;
7426;SDS011;3755;59.316;18.092;2022-07-29T07:09:52;1.10;;;0.60;;
7426;SDS011;3755;59.316;18.092;2022-07-29T07:12:19;0.50;;;0.40;;
7426;SDS011;3755;59.316;18.092;2022-07-29T07:14:46;2.17;;;0.60;;
7426;SDS011;3755;59.316;18.092;2022-07-29T07:17:17;1.35;;;0.80;;
7426;SDS011;3755;59.316;18.092;2022-07-29T07:19:44;0.88;;;0.50;;
7426;SDS011;3755;59.316;18.092;2022-07-29T07:22:13;0.60;;;0.30;;
7426;SDS011;3755;59.316;18.092;2022-07-29T07:24:40;0.40;;;0.40;;
7426;SDS011;3755;59.316;18.092;2022-07-29T07:27:08;3.30;;;0.82;;
7426;SDS011;3755;59.316;18.092;2022-07-29T07:29:35;4.95;;;0.82;;
7426;SDS011;3755;59.316;18.092;2022-07-29T07:32:08;4.03;;;1.25;;
7426;SDS011;3755;59.316;18.092;2022-07-29T07:34:37;1.52;;;0.70;;
7426;SDS011;3755;59.316;18.092;2022-07-29T07:37:04;3.15;;;1.40;;
7426;SDS011;3755;59.316;18.092;2022-07-29T07:39:32;4.30;;;1.67;;
7426;SDS011;3755;59.316;18.092;2022-07-29T07:41:59;3.50;;;0.80;;
7426;SDS011;3755;59.316;18.092;2022-07-29T07:44:28;3.85;;;2.10;;
7426;SDS011;3755;59.316;18.092;2022-07-29T07:46:55;4.03;;;1.98;;
7426;SDS011;3755;59.316;18.092;2022-07-29T07:49:23;3.65;;;1.30;;
7426;SDS011;3755;59.316;18.092;2022-07-29T07:51:52;0.70;;;0.63;;
7426;SDS011;3755;59.316;18.092;2022-07-29T07:54:19;0.57;;;0.57;;
7426;SDS011;3755;59.316;18.092;2022-07-29T07:56:47;3.08;;;2.05;;
7426;SDS011;3755;59.316;18.092;2022-07-29T07:59:14;1.65;;;0.73;;
7426;SDS011;3755;59.316;18.092;2022-07-29T08:01:43;4.25;;;2.13;;
7426;SDS011;3755;59.316;18.092;2022-07-29T08:04:10;4.60;;;3.22;;
7426;SDS011;3755;59.316;18.092;2022-07-29T08:06:37;1.20;;;0.73;;
7426;SDS011;3755;59.316;18.092;2022-07-29T08:09:05;2.00;;;0.90;;
7426;SDS011;3755;59.316;18.092;2022-07-29T08:11:32;2.63;;;0.85;;
7426;SDS011;3755;59.316;18.092;2022-07-29T08:14:01;0.80;;;0.65;;
7426;SDS011;3755;59.316;18.092;2022-07-29T08:16:29;1.45;;;0.88;;
7426;SDS011;3755;59.316;18.092;2022-07-29T08:18:57;0.68;;;0.50;;
7426;SDS011;3755;59.316;18.092;2022-07-29T08:21:24;1.77;;;0.70;;
7426;SDS011;3755;59.316;18.092;2022-07-29T08:23:52;1.08;;;0.63;;
7426;SDS011;3755;59.316;18.092;2022-07-29T08:26:41;1.25;;;0.90;;
7426;SDS011;3755;59.316;18.092;2022-07-29T08:29:09;2.28;;;0.57;;
7426;SDS011;3755;59.316;18.092;2022-07-29T08:31:37;0.57;;;0.45;;
7426;SDS011;3755;59.316;18.092;2022-07-29T08:34:05;2.53;;;1.20;;
7426;SDS011;3755;59.316;18.092;2022-07-29T08:36:33;1.60;;;1.27;;
7426;SDS011;3755;59.316;18.092;2022-07-29T08:39:01;0.98;;;0.80;;
7426;SDS011;3755;59.316;18.092;2022-07-29T08:41:30;0.40;;;0.40;;
7426;SDS011;3755;59.316;18.092;2022-07-29T08:43:59;3.70;;;0.95;;
7426;SDS011;3755;59.316;18.092;2022-07-29T08:46:26;1.63;;;0.47;;
7426;SDS011;3755;59.316;18.092;2022-07-29T08:48:53;1.80;;;0.65;;
7426;SDS011;3755;59.316;18.092;2022-07-29T08:51:22;0.90;;;0.80;;
7426;SDS011;3755;59.316;18.092;2022-07-29T08:53:51;1.40;;;0.93;;
7426;SDS011;3755;59.316;18.092;2022-07-29T08:56:19;6.22;;;1.90;;
7426;SDS011;3755;59.316;18.092;2022-07-29T08:58:46;1.10;;;0.70;;
7426;SDS011;3755;59.316;18.092;2022-07-29T09:01:17;1.02;;;0.70;;
7426;SDS011;3755;59.316;18.092;2022-07-29T09:03:48;1.33;;;0.63;;
7426;SDS011;3755;59.316;18.092;2022-07-29T09:06:18;2.55;;;0.60;;
7426;SDS011;3755;59.316;18.092;2022-07-29T09:08:48;1.67;;;0.70;;
7426;SDS011;3755;59.316;18.092;2022-07-29T09:11:16;2.20;;;0.60;;
7426;SDS011;3755;59.316;18.092;2022-07-29T09:13:47;0.70;;;0.60;;
7426;SDS011;3755;59.316;18.092;2022-07-29T09:16:16;0.40;;;0.40;;
7426;SDS011;3755;59.316;18.092;2022-07-29T09:18:45;0.77;;;0.75;;
7426;SDS011;3755;59.316;18.092;2022-07-29T09:21:13;1.80;;;1.20;;
7426;SDS011;3755;59.316;18.092;2022-07-29T09:24:03;1.83;;;1.38;;
7426;SDS011;3755;59.316;18.092;2022-07-29T09:26:33;1.45;;;0.90;;
7426;SDS011;3755;59.316;18.092;2022-07-29T09:29:07;1.52;;;0.63;;
7426;SDS011;3755;59.316;18.092;2022-07-29T09:31:38;1.77;;;0.70;;
7426;SDS011;3755;59.316;18.092;2022-07-29T09:34:10;2.72;;;0.50;;
7426;SDS011;3755;59.316;18.092;2022-07-29T09:36:40;1.95;;;0.70;;
7426;SDS011;3755;59.316;18.092;2022-07-29T09:39:08;1.77;;;0.65;;
7426;SDS011;3755;59.316;18.092;2022-07-29T09:41:46;1.92;;;0.50;;
7426;SDS011;3755;59.316;18.092;2022-07-29T09:44:14;1.20;;;0.52;;
7426;SDS011;3755;59.316;18.092;2022-07-29T09:46:53;1.42;;;0.50;;
7426;SDS011;3755;59.316;18.092;2022-07-29T09:49:22;3.83;;;1.10;;
7426;SDS011;3755;59.316;18.092;2022-07-29T09:51:58;2.25;;;0.75;;
7426;SDS011;3755;59.316;18.092;2022-07-29T09:54:30;1.88;;;0.73;;
7426;SDS011;3755;59.316;18.092;2022-07-29T09:57:03;1.23;;;0.65;;
7426;SDS011;3755;59.316;18.092;2022-07-29T09:59:32;1.48;;;0.65;;
7426;SDS011;3755;59.316;18.092;2022-07-29T10:02:02;0.75;;;0.40;;
7426;SDS011;3755;59.316;18.092;2022-07-29T10:04:38;0.75;;;0.60;;
7426;SDS011;3755;59.316;18.092;2022-07-29T10:07:06;1.23;;;0.50;;
7426;SDS011;3755;59.316;18.092;2022-07-29T10:09:34;2.30;;;0.45;;
7426;SDS011;3755;59.316;18.092;2022-07-29T10:12:08;1.23;;;0.60;;
7426;SDS011;3755;59.316;18.092;2022-07-29T10:14:38;1.15;;;0.47;;
7426;SDS011;3755;59.316;18.092;2022-07-29T10:17:08;0.75;;;0.60;;
7426;SDS011;3755;59.316;18.092;2022-07-29T10:19:38;0.75;;;0.50;;
7426;SDS011;3755;59.316;18.092;2022-07-29T10:22:09;0.70;;;0.50;;
7426;SDS011;3755;59.316;18.092;2022-07-29T10:24:39;0.80;;;0.70;;
7426;SDS011;3755;59.316;18.092;2022-07-29T10:27:07;1.90;;;0.57;;
7426;SDS011;3755;59.316;18.092;2022-07-29T10:29:34;0.80;;;0.68;;
7426;SDS011;3755;59.316;18.092;2022-07-29T10:32:11;1.23;;;0.52;;
7426;SDS011;3755;59.316;18.092;2022-07-29T10:34:56;2.22;;;0.80;;
7426;SDS011;3755;59.316;18.092;2022-07-29T10:37:49;1.25;;;0.77;;
7426;SDS011;3755;59.316;18.092;2022-07-29T10:40:31;2.25;;;0.65;;
7426;SDS011;3755;59.316;18.092;2022-07-29T10:43:24;1.52;;;0.52;;
7426;SDS011;3755;59.316;18.092;2022-07-29T10:45:55;2.28;;;0.70;;
7426;SDS011;3755;59.316;18.092;2022-07-29T10:48:25;2.45;;;0.70;;
7426;SDS011;3755;59.316;18.092;2022-07-29T10:50:57;1.95;;;0.60;;
7426;SDS011;3755;59.316;18.092;2022-07-29T10:53:46;1.20;;;0.82;;
7426;SDS011;3755;59.316;18.092;2022-07-29T10:56:23;2.35;;;0.73;;
7426;SDS011;3755;59.316;18.092;2022-07-29T11:01:56;1.17;;;0.70;;
7426;SDS011;3755;59.316;18.092;2022-07-29T11:07:26;1.30;;;0.80;;
7426;SDS011;3755;59.316;18.092;2022-07-29T11:12:47;0.85;;;0.50;;
7426;SDS011;3755;59.316;18.092;2022-07-29T11:15:17;0.40;;;0.40;;
7426;SDS011;3755;59.316;18.092;2022-07-29T11:18:03;0.60;;;0.50;;
7426;SDS011;3755;59.316;18.092;2022-07-29T11:20:39;5.95;;;1.15;;
7426;SDS011;3755;59.316;18.092;2022-07-29T11:23:19;2.10;;;0.63;;
7426;SDS011;3755;59.316;18.092;2022-07-29T11:28:54;1.33;;;0.52;;
7426;SDS011;3755;59.316;18.092;2022-07-29T11:31:33;1.25;;;0.50;;
7426;SDS011;3755;59.316;18.092;2022-07-29T11:34:18;3.83;;;0.60;;
7426;SDS011;3755;59.316;18.092;2022-07-29T11:39:47;1.40;;;0.50;;
7426;SDS011;3755;59.316;18.092;2022-07-29T11:42:38;0.40;;;0.40;;
7426;SDS011;3755;59.316;18.092;2022-07-29T11:45:10;0.60;;;0.47;;
7426;SDS011;3755;59.316;18.092;2022-07-29T11:47:47;1.05;;;0.60;;
7426;SDS011;3755;59.316;18.092;2022-07-29T11:50:29;0.85;;;0.50;;
7426;SDS011;3755;59.316;18.092;2022-07-29T11:52:59;1.65;;;0.68;;
7426;SDS011;3755;59.316;18.092;2022-07-29T11:55:31;0.50;;;0.50;;
7426;SDS011;3755;59.316;18.092;2022-07-29T11:58:04;0.60;;;0.60;;
7426;SDS011;3755;59.316;18.092;2022-07-29T12:00:32;1.65;;;0.60;;
7426;SDS011;3755;59.316;18.092;2022-07-29T12:03:04;0.65;;;0.50;;
7426;SDS011;3755;59.316;18.092;2022-07-29T12:05:34;3.70;;;0.70;;
7426;SDS011;3755;59.316;18.092;2022-07-29T12:08:07;1.75;;;0.73;;
7426;SDS011;3755;59.316;18.092;2022-07-29T12:10:47;4.07;;;0.90;;
7426;SDS011;3755;59.316;18.092;2022-07-29T12:13:18;2.28;;;0.80;;
7426;SDS011;3755;59.316;18.092;2022-07-29T12:15:53;0.98;;;0.65;;
7426;SDS011;3755;59.316;18.092;2022-07-29T12:18:22;0.95;;;0.40;;
7426;SDS011;3755;59.316;18.092;2022-07-29T12:20:56;1.90;;;0.55;;
7426;SDS011;3755;59.316;18.092;2022-07-29T12:23:24;0.50;;;0.50;;
7426;SDS011;3755;59.316;18.092;2022-07-29T12:25:53;0.68;;;0.60;;
7426;SDS011;3755;59.316;18.092;2022-07-29T12:28:22;5.22;;;0.90;;
7426;SDS011;3755;59.316;18.092;2022-07-29T12:30:54;0.80;;;0.50;;
7426;SDS011;3755;59.316;18.092;2022-07-29T12:33:24;1.83;;;0.70;;
7426;SDS011;3755;59.316;18.092;2022-07-29T12:35:55;1.63;;;0.93;;
7426;SDS011;3755;59.316;18.092;2022-07-29T12:38:24;0.52;;;0.50;;
7426;SDS011;3755;59.316;18.092;2022-07-29T12:40:53;1.17;;;0.50;;
7426;SDS011;3755;59.316;18.092;2022-07-29T12:43:22;1.00;;;0.57;;
7426;SDS011;3755;59.316;18.092;2022-07-29T12:45:52;1.83;;;0.93;;
7426;SDS011;3755;59.316;18.092;2022-07-29T12:48:32;0.80;;;0.50;;
7426;SDS011;3755;59.316;18.092;2022-07-29T12:51:01;1.27;;;0.65;;
7426;SDS011;3755;59.316;18.092;2022-07-29T12:53:29;2.67;;;0.60;;
7426;SDS011;3755;59.316;18.092;2022-07-29T12:56:02;3.40;;;0.82;;
7426;SDS011;3755;59.316;18.092;2022-07-29T12:58:32;1.30;;;0.68;;
7426;SDS011;3755;59.316;18.092;2022-07-29T13:01:02;1.58;;;0.50;;
7426;SDS011;3755;59.316;18.092;2022-07-29T13:06:28;0.75;;;0.55;;
7426;SDS011;3755;59.316;18.092;2022-07-29T13:09:01;2.38;;;1.13;;
7426;SDS011;3755;59.316;18.092;2022-07-29T13:11:50;0.75;;;0.70;;
7426;SDS011;3755;59.316;18.092;2022-07-29T13:14:29;0.80;;;0.68;;
7426;SDS011;3755;59.316;18.092;2022-07-29T13:17:03;1.05;;;0.60;;
7426;SDS011;3755;59.316;18.092;2022-07-29T13:19:36;1.08;;;0.60;;
7426;SDS011;3755;59.316;18.092;2022-07-29T13:22:05;1.48;;;0.50;;
7426;SDS011;3755;59.316;18.092;2022-07-29T13:24:33;2.92;;;0.60;;
7426;SDS011;3755;59.316;18.092;2022-07-29T13:27:03;1.42;;;0.73;;
7426;SDS011;3755;59.316;18.092;2022-07-29T13:29:34;0.60;;;0.55;;
7426;SDS011;3755;59.316;18.092;2022-07-29T13:32:05;1.88;;;0.60;;
7426;SDS011;3755;59.316;18.092;2022-07-29T13:34:34;1.13;;;0.75;;
7426;SDS011;3755;59.316;18.092;2022-07-29T13:37:01;0.70;;;0.60;;
7426;SDS011;3755;59.316;18.092;2022-07-29T13:39:30;0.50;;;0.50;;
7426;SDS011;3755;59.316;18.092;2022-07-29T13:41:57;0.70;;;0.50;;
7426;SDS011;3755;59.316;18.092;2022-07-29T13:44:26;1.73;;;0.50;;
7426;SDS011;3755;59.316;18.092;2022-07-29T13:46:54;1.23;;;0.55;;
7426;SDS011;3755;59.316;18.092;2022-07-29T13:49:23;0.52;;;0.50;;
7426;SDS011;3755;59.316;18.092;2022-07-29T13:51:52;2.22;;;0.77;;
7426;SDS011;3755;59.316;18.092;2022-07-29T13:54:22;2.45;;;1.08;;
7426;SDS011;3755;59.316;18.092;2022-07-29T13:56:57;0.95;;;0.60;;
7426;SDS011;3755;59.316;18.092;2022-07-29T13:59:28;1.58;;;0.85;;
7426;SDS011;3755;59.316;18.092;2022-07-29T14:01:55;3.00;;;0.80;;
7426;SDS011;3755;59.316;18.092;2022-07-29T14:04:23;1.30;;;1.00;;
7426;SDS011;3755;59.316;18.092;2022-07-29T14:06:51;0.57;;;0.50;;
7426;SDS011;3755;59.316;18.092;2022-07-29T14:09:19;0.65;;;0.60;;
7426;SDS011;3755;59.316;18.092;2022-07-29T14:11:46;0.63;;;0.60;;
7426;SDS011;3755;59.316;18.092;2022-07-29T14:14:18;2.05;;;0.50;;
7426;SDS011;3755;59.316;18.092;2022-07-29T14:16:47;1.30;;;0.50;;
7426;SDS011;3755;59.316;18.092;2022-07-29T14:19:16;1.20;;;0.60;;
7426;SDS011;3755;59.316;18.092;2022-07-29T14:21:43;0.50;;;0.50;;
7426;SDS011;3755;59.316;18.092;2022-07-29T14:24:11;1.48;;;0.80;;
7426;SDS011;3755;59.316;18.092;2022-07-29T14:26:53;1.30;;;0.73;;
7426;SDS011;3755;59.316;18.092;2022-07-29T14:29:21;4.25;;;0.77;;
7426;SDS011;3755;59.316;18.092;2022-07-29T14:31:51;5.80;;;0.90;;
7426;SDS011;3755;59.316;18.092;2022-07-29T14:34:20;2.92;;;0.75;;
7426;SDS011;3755;59.316;18.092;2022-07-29T14:36:48;0.30;;;0.30;;
7426;SDS011;3755;59.316;18.092;2022-07-29T14:39:20;1.83;;;0.60;;
7426;SDS011;3755;59.316;18.092;2022-07-29T14:41:49;1.20;;;0.60;;
7426;SDS011;3755;59.316;18.092;2022-07-29T14:44:23;1.60;;;0.52;;
7426;SDS011;3755;59.316;18.092;2022-07-29T14:46:58;1.50;;;0.45;;
7426;SDS011;3755;59.316;18.092;2022-07-29T14:49:25;4.10;;;1.20;;
7426;SDS011;3755;59.316;18.092;2022-07-29T14:51:53;3.78;;;1.15;;
7426;SDS011;3755;59.316;18.092;2022-07-29T14:54:21;5.30;;;1.73;;
7426;SDS011;3755;59.316;18.092;2022-07-29T14:56:49;0.88;;;0.60;;
7426;SDS011;3755;59.316;18.092;2022-07-29T14:59:20;2.78;;;1.45;;
7426;SDS011;3755;59.316;18.092;2022-07-29T15:01:47;0.65;;;0.60;;
7426;SDS011;3755;59.316;18.092;2022-07-29T15:04:16;0.77;;;0.45;;
7426;SDS011;3755;59.316;18.092;2022-07-29T15:06:44;1.70;;;0.90;;
7426;SDS011;3755;59.316;18.092;2022-07-29T15:09:11;0.77;;;0.50;;
7426;SDS011;3755;59.316;18.092;2022-07-29T15:11:38;0.60;;;0.50;;
7426;SDS011;3755;59.316;18.092;2022-07-29T15:14:05;0.38;;;0.32;;
7426;SDS011;3755;59.316;18.092;2022-07-29T15:16:34;0.90;;;0.50;;
7426;SDS011;3755;59.316;18.092;2022-07-29T15:19:02;0.90;;;0.50;;
7426;SDS011;3755;59.316;18.092;2022-07-29T15:21:32;0.47;;;0.47;;
7426;SDS011;3755;59.316;18.092;2022-07-29T15:23:59;1.60;;;0.50;;
7426;SDS011;3755;59.316;18.092;2022-07-29T15:26:26;1.70;;;0.60;;
7426;SDS011;3755;59.316;18.092;2022-07-29T15:28:54;2.63;;;0.47;;
7426;SDS011;3755;59.316;18.092;2022-07-29T15:31:21;2.03;;;0.75;;
7426;SDS011;3755;59.316;18.092;2022-07-29T15:33:49;0.95;;;0.47;;
7426;SDS011;3755;59.316;18.092;2022-07-29T15:36:19;0.90;;;0.50;;